Time;durP1;ratioP1;P1;durP2;ratioP2;P2;SDS_P1;SDS_P2;PMS_P1;PMS_P2;Temp;Humidity;BMP_temperature;BMP_pressure;BME280_temperature;BME280_humidity;BME280_pressure;Samples;Min_cycle;Max_cycle;Signal;HPM_P1;HPM_P2
2022/05/24 00:01:23;;;;;;;1.65;1.13;;;;;;;15.25;68.91;99207.66;5073611;28;20119;-82
2022/05/24 00:03:49;;;;;;;2.55;0.98;;;;;;;15.15;69.25;99202.53;5074260;28;20102;-82
2022/05/24 00:06:15;;;;;;;3.58;0.77;;;;;;;15.21;69.16;99195.75;5074426;28;20043;-82
2022/05/24 00:08:41;;;;;;;0.90;0.70;;;;;;;15.26;68.64;99201.38;5073116;28;20688;-82
2022/05/24 00:11:07;;;;;;;2.03;1.13;;;;;;;15.20;68.38;99200.19;5074305;28;20039;-82
2022/05/24 00:13:33;;;;;;;2.40;1.02;;;;;;;15.29;69.14;99201.06;5073912;28;20482;-82
2022/05/24 00:15:58;;;;;;;2.47;0.98;;;;;;;15.28;68.55;99199.38;5073399;28;20037;-82
2022/05/24 00:18:27;;;;;;;3.72;1.23;;;;;;;15.28;68.81;99202.03;5074262;28;20028;-83
2022/05/24 00:20:56;;;;;;;3.08;1.08;;;;;;;15.29;68.57;99202.88;5074298;28;20022;-82
2022/05/24 00:23:24;;;;;;;2.15;1.33;;;;;;;15.35;68.64;99200.38;5073598;28;20486;-82
2022/05/24 00:25:52;;;;;;;2.55;0.80;;;;;;;15.37;68.84;99206.34;5065015;28;20053;-82
2022/05/24 00:28:19;;;;;;;2.35;1.13;;;;;;;15.34;67.96;99195.25;5052997;28;20454;-83
2022/05/24 00:30:46;;;;;;;3.05;0.88;;;;;;;15.42;69.10;99196.09;5053148;28;20087;-82
2022/05/24 00:33:13;;;;;;;4.78;1.15;;;;;;;15.38;68.27;99192.13;5053822;28;20071;-82
2022/05/24 00:35:39;;;;;;;1.63;0.93;;;;;;;15.43;68.56;99191.63;5057492;28;20060;-82
2022/05/24 00:38:07;;;;;;;3.20;0.82;;;;;;;15.44;67.56;99190.63;5053714;28;20067;-83
2022/05/24 00:40:44;;;;;;;4.30;1.00;;;;;;;15.49;68.68;99198.09;5053933;28;20561;-82
2022/05/24 00:44:01;;;;;;;2.13;0.80;;;;;;;15.25;69.23;99195.25;5054096;28;20029;-82
2022/05/24 00:46:48;;;;;;;3.25;2.05;;;;;;;15.40;68.88;99195.44;5035061;28;20067;-83
2022/05/24 00:49:22;;;;;;;3.13;0.90;;;;;;;15.42;68.37;99195.25;5073142;28;20360;-83
2022/05/24 00:51:54;;;;;;;1.70;0.88;;;;;;;15.32;68.92;99192.78;5073441;28;20055;-83
2022/05/24 00:54:19;;;;;;;2.33;0.90;;;;;;;15.24;68.49;99196.25;5073516;28;20071;-83
2022/05/24 00:56:58;;;;;;;2.53;0.85;;;;;;;15.26;67.83;99194.28;5056580;28;20418;-83
2022/05/24 00:59:28;;;;;;;5.72;1.17;;;;;;;15.26;68.39;99201.38;5053904;28;20064;-83
2022/05/24 01:01:55;;;;;;;1.90;1.20;;;;;;;14.96;68.13;99198.34;5053579;28;20033;-83
2022/05/24 01:04:20;;;;;;;2.53;1.23;;;;;;;15.24;67.93;99195.41;5053364;28;20021;-83
2022/05/24 01:06:47;;;;;;;4.05;1.70;;;;;;;15.26;67.56;99198.72;5053162;28;20100;-83
2022/05/24 01:09:30;;;;;;;3.50;1.30;;;;;;;15.30;67.78;99193.94;5053194;28;20029;-83
2022/05/24 01:12:01;;;;;;;4.38;1.70;;;;;;;15.14;67.98;99208.78;5053078;28;20021;-83
2022/05/24 01:14:27;;;;;;;3.05;1.90;;;;;;;15.19;68.38;99209.13;5071284;28;20100;-83
2022/05/24 01:16:55;;;;;;;4.05;1.75;;;;;;;15.25;68.92;99207.66;5054135;28;20037;-83
2022/05/24 01:19:43;;;;;;;7.82;1.67;;;;;;;15.26;68.56;99207.50;5071953;28;20099;-83
2022/05/24 01:22:26;;;;;;;5.93;2.50;;;;;;;15.35;69.37;99203.03;5072444;28;20116;-83
2022/05/24 01:25:00;;;;;;;5.15;3.47;;;;;;;15.18;69.04;99209.28;5071979;28;20082;-83
2022/05/24 01:27:25;;;;;;;6.30;3.50;;;;;;;15.24;69.68;99206.00;5053285;28;20056;-83
2022/05/24 01:29:51;;;;;;;7.20;3.28;;;;;;;15.21;68.82;99211.63;5058506;28;20107;-83
2022/05/24 01:37:44;;;;;;;5.40;3.90;;;;;;;15.26;68.03;99204.88;5071388;28;20038;-84
2022/05/24 01:40:10;;;;;;;8.38;4.40;;;;;;;15.31;68.15;99207.00;5071239;28;20037;-84
2022/05/24 01:42:35;;;;;;;8.90;4.90;;;;;;;15.22;68.40;99214.09;5070424;28;20027;-84
2022/05/24 01:45:19;;;;;;;7.00;4.82;;;;;;;15.28;68.66;99217.91;5072252;28;20058;-84
2022/05/24 01:47:47;;;;;;;7.95;4.22;;;;;;;15.13;68.49;99222.19;5072512;28;20478;-84
2022/05/24 01:50:17;;;;;;;6.88;4.63;;;;;;;15.14;69.01;99213.25;5072633;28;20063;-84
2022/05/24 01:52:46;;;;;;;6.47;4.70;;;;;;;15.08;69.13;99215.56;5072456;28;20024;-84
2022/05/24 01:55:18;;;;;;;6.85;4.53;;;;;;;15.26;68.34;99220.72;5063768;28;20100;-83
2022/05/24 01:57:51;;;;;;;6.85;4.70;;;;;;;15.02;68.55;99218.84;5052617;28;20051;-83
2022/05/24 02:00:17;;;;;;;9.88;4.90;;;;;;;15.19;68.38;99218.91;5051645;28;20025;-83
2022/05/24 02:02:43;;;;;;;9.90;4.88;;;;;;;15.22;68.78;99222.00;5052079;28;20185;-83
2022/05/24 02:05:09;;;;;;;6.13;5.15;;;;;;;15.15;68.06;99220.22;5052289;28;20098;-83
2022/05/24 02:07:35;;;;;;;13.02;4.57;;;;;;;15.21;67.84;99223.03;5052159;28;20071;-83
2022/05/24 02:10:01;;;;;;;5.38;4.60;;;;;;;15.21;67.78;99224.84;5060452;28;20032;-84
2022/05/24 02:12:32;;;;;;;6.30;4.32;;;;;;;15.18;68.33;99222.50;5071961;28;20025;-83
2022/05/24 02:15:07;;;;;;;5.75;4.63;;;;;;;15.21;69.53;99222.19;5072175;28;20021;-83
2022/05/24 02:17:40;;;;;;;5.88;3.88;;;;;;;15.22;68.59;99232.59;5071815;28;20039;-83
2022/05/24 02:20:10;;;;;;;6.00;4.40;;;;;;;15.26;67.76;99227.81;5071975;28;20443;-83
2022/05/24 02:22:36;;;;;;;6.15;3.85;;;;;;;15.20;68.66;99226.63;5071872;28;20017;-83
2022/05/24 02:25:10;;;;;;;5.22;4.25;;;;;;;15.20;68.37;99223.19;5067222;28;20395;-83
2022/05/24 02:27:40;;;;;;;4.57;3.72;;;;;;;15.23;68.50;99231.63;5071996;28;20024;-83
2022/05/24 02:30:06;;;;;;;5.53;3.13;;;;;;;15.02;67.61;99226.78;5070353;28;20040;-83
2022/05/24 02:32:32;;;;;;;5.55;3.85;;;;;;;15.12;68.13;99226.63;5071660;28;20459;-83
2022/05/24 02:34:57;;;;;;;5.82;3.10;;;;;;;15.06;68.71;99230.75;5071803;28;20067;-83
2022/05/24 02:37:22;;;;;;;4.53;2.63;;;;;;;14.87;69.56;99236.34;5071726;28;20021;-83
2022/05/24 02:42:32;;;;;;;5.65;2.83;;;;;;;14.54;70.54;99249.38;5071826;28;20094;-83
2022/05/24 02:44:57;;;;;;;3.08;2.22;;;;;;;14.72;69.66;99233.47;5062997;28;20514;-83
2022/05/24 02:47:23;;;;;;;2.95;1.90;;;;;;;14.85;69.07;99243.59;5050480;28;20584;-83
2022/05/24 02:49:48;;;;;;;4.05;1.85;;;;;;;14.88;68.79;99240.63;5051687;28;20486;-83
2022/05/24 02:52:16;;;;;;;4.90;1.40;;;;;;;14.71;69.61;99244.19;5051734;28;20082;-83
2022/05/24 02:54:41;;;;;;;2.85;1.60;;;;;;;14.70;69.33;99261.03;5069391;28;20063;-83
2022/05/24 02:57:06;;;;;;;1.83;1.35;;;;;;;14.80;68.90;99251.16;5072053;28;20063;-83
2022/05/24 02:59:33;;;;;;;1.50;1.13;;;;;;;14.92;69.09;99259.63;5070421;28;20507;-83
2022/05/24 03:01:58;;;;;;;2.28;1.25;;;;;;;14.91;68.89;99257.97;5071961;28;20305;-83
2022/05/24 03:04:24;;;;;;;3.65;1.33;;;;;;;14.84;69.02;99266.53;5071658;28;20628;-83
2022/05/24 03:09:33;;;;;;;2.78;1.45;;;;;;;14.89;68.70;99260.78;5060433;28;20038;-83
2022/05/24 03:14:43;;;;;;;1.77;1.00;;;;;;;14.93;69.92;99269.19;5055335;28;20506;-83
2022/05/24 03:17:08;;;;;;;1.40;0.93;;;;;;;14.88;68.59;99259.13;5055389;28;20060;-83
2022/05/24 03:19:34;;;;;;;1.23;0.88;;;;;;;14.93;68.59;99267.41;5054081;28;20119;-83
2022/05/24 03:22:00;;;;;;;1.52;0.80;;;;;;;14.87;68.89;99266.22;5055419;28;20025;-83
2022/05/24 03:24:25;;;;;;;1.23;0.63;;;;;;;14.80;68.79;99264.38;5067199;28;20044;-83
2022/05/24 03:26:51;;;;;;;3.28;0.80;;;;;;;14.79;68.85;99266.19;5075266;28;20032;-83
2022/05/24 03:29:17;;;;;;;0.77;0.65;;;;;;;14.57;69.64;99261.47;5075564;28;20036;-83
2022/05/24 03:31:42;;;;;;;1.13;0.63;;;;;;;14.70;68.91;99267.16;5075046;28;20474;-83
2022/05/24 03:34:07;;;;;;;3.60;0.73;;;;;;;14.54;70.09;99267.88;5075365;28;20103;-83
2022/05/24 03:36:33;;;;;;;1.52;0.80;;;;;;;14.63;70.22;99279.31;5075125;28;20032;-83
2022/05/24 03:38:59;;;;;;;0.95;0.85;;;;;;;14.74;69.91;99283.50;5064035;28;20406;-83
2022/05/24 03:41:25;;;;;;;1.60;0.73;;;;;;;14.76;69.75;99277.06;5054754;28;20021;-83
2022/05/24 03:43:51;;;;;;;1.52;0.60;;;;;;;14.67;70.11;99283.31;5054879;28;20028;-83
2022/05/24 03:46:16;;;;;;;2.30;0.55;;;;;;;14.81;69.58;99295.94;5053692;28;20128;-83
2022/05/24 03:48:42;;;;;;;1.98;0.70;;;;;;;14.58;69.97;99289.56;5054859;28;20068;-83
2022/05/24 03:51:08;;;;;;;1.63;0.60;;;;;;;14.70;69.22;99295.38;5054614;28;20025;-83
2022/05/24 03:53:33;;;;;;;0.98;0.80;;;;;;;14.51;70.27;99284.03;5062744;28;20029;-83
2022/05/24 03:55:58;;;;;;;0.95;0.57;;;;;;;14.47;69.65;99287.97;5074503;28;20394;-83
2022/05/24 03:58:25;;;;;;;1.42;0.68;;;;;;;14.77;69.40;99294.59;5074596;28;20029;-83
2022/05/24 04:00:50;;;;;;;0.93;0.50;;;;;;;14.81;69.28;99295.09;5074666;28;20492;-83
2022/05/24 04:03:16;;;;;;;2.63;0.60;;;;;;;14.76;69.67;99300.03;5074549;28;20644;-83
2022/05/24 04:05:42;;;;;;;1.77;0.63;;;;;;;15.08;68.11;99302.78;5074489;28;20085;-83
2022/05/24 04:08:08;;;;;;;0.68;0.50;;;;;;;15.25;67.69;99308.16;5066297;28;20024;-83
2022/05/24 04:10:35;;;;;;;2.47;0.60;;;;;;;15.32;68.06;99301.19;5054583;28;20094;-83
2022/05/24 04:13:02;;;;;;;2.72;0.60;;;;;;;15.27;67.33;99316.75;5054311;28;20036;-83
2022/05/24 04:15:28;;;;;;;2.17;0.55;;;;;;;15.32;67.68;99309.13;5053168;28;20032;-83
2022/05/24 04:17:54;;;;;;;1.00;0.63;;;;;;;15.31;67.28;99304.84;5054212;28;20025;-83
2022/05/24 04:20:21;;;;;;;1.48;0.90;;;;;;;15.23;68.19;99312.78;5054299;28;20467;-83
2022/05/24 04:22:46;;;;;;;2.85;1.60;;;;;;;15.34;67.49;99312.44;5060474;28;20021;-83
2022/05/24 04:25:13;;;;;;;1.67;1.00;;;;;;;15.35;67.47;99314.13;5072838;28;20395;-83
2022/05/24 04:27:40;;;;;;;3.03;1.13;;;;;;;15.31;66.99;99318.06;5074228;28;20024;-83
2022/05/24 04:30:07;;;;;;;2.25;1.35;;;;;;;15.32;67.14;99317.06;5074475;28;20036;-83
2022/05/24 04:32:33;;;;;;;2.40;1.23;;;;;;;15.23;67.20;99312.78;5073955;28;20098;-83
2022/05/24 04:34:58;;;;;;;1.20;1.08;;;;;;;15.26;67.05;99330.94;5073953;28;20471;-83
2022/05/24 04:37:24;;;;;;;3.67;1.10;;;;;;;15.20;67.01;99327.13;5073705;28;20021;-83
2022/05/24 04:39:49;;;;;;;1.55;1.27;;;;;;;15.24;66.85;99332.91;5073996;28;20028;-83
2022/05/24 04:42:23;;;;;;;1.20;1.10;;;;;;;15.27;67.14;99329.97;5072696;28;20020;-83
2022/05/24 04:44:52;;;;;;;2.33;1.27;;;;;;;15.24;67.33;99330.28;5073861;28;20032;-83
2022/05/24 04:47:19;;;;;;;2.47;1.60;;;;;;;15.18;66.95;99336.22;5073977;28;20036;-83
2022/05/24 04:49:50;;;;;;;1.50;1.10;;;;;;;15.05;67.76;99339.31;5073619;28;20017;-83
2022/05/24 04:52:16;;;;;;;2.55;2.03;;;;;;;14.97;68.47;99334.81;5071684;28;20488;-83
2022/05/24 04:54:43;;;;;;;3.83;1.30;;;;;;;15.01;68.36;99343.25;5073667;28;20028;-83
2022/05/24 04:57:09;;;;;;;2.25;1.38;;;;;;;14.98;68.55;99343.56;5073828;28;20487;-83
2022/05/24 04:59:35;;;;;;;4.22;1.35;;;;;;;14.86;69.21;99351.78;5073595;28;20031;-83
2022/05/24 05:02:01;;;;;;;2.13;1.50;;;;;;;14.93;68.69;99345.84;5073512;28;20024;-83
2022/05/24 05:04:27;;;;;;;2.83;2.10;;;;;;;14.97;68.79;99358.59;5072006;28;20438;-83
2022/05/24 05:06:53;;;;;;;1.88;1.33;;;;;;;15.07;68.59;99359.31;5067100;28;20123;-83
2022/05/24 05:09:19;;;;;;;3.38;1.40;;;;;;;15.15;68.99;99363.81;5062568;28;20118;-83
2022/05/24 05:11:44;;;;;;;2.85;1.60;;;;;;;15.38;67.54;99361.41;5072566;28;20032;-83
2022/05/24 05:14:10;;;;;;;3.42;1.77;;;;;;;15.71;67.37;99365.94;5072586;28;20102;-83
2022/05/24 05:16:37;;;;;;;1.98;1.10;;;;;;;15.74;66.03;99368.28;5072180;28;20032;-83
2022/05/24 05:19:05;;;;;;;1.40;1.10;;;;;;;15.86;66.26;99359.06;5072615;28;20154;-83
2022/05/24 05:21:34;;;;;;;2.03;1.20;;;;;;;15.92;66.03;99365.53;5072844;28;20052;-83
2022/05/24 05:24:00;;;;;;;1.67;1.13;;;;;;;15.93;65.83;99359.22;5071916;28;20020;-84
2022/05/24 05:26:26;;;;;;;3.03;1.13;;;;;;;16.00;64.69;99370.81;5070771;28;20060;-83
2022/05/24 05:28:51;;;;;;;1.02;0.82;;;;;;;16.12;65.78;99374.78;5067890;28;20112;-83
2022/05/24 05:31:19;;;;;;;3.03;1.15;;;;;;;16.32;64.65;99377.09;5072308;28;20021;-83
2022/05/24 05:33:47;;;;;;;3.40;1.40;;;;;;;16.42;64.62;99385.69;5071933;28;20028;-85
2022/05/24 05:36:13;;;;;;;6.18;1.27;;;;;;;16.52;64.05;99391.66;5071968;28;20081;-85
2022/05/24 05:38:45;;;;;;;2.67;1.00;;;;;;;16.44;64.40;99389.00;5071879;28;20044;-83
2022/05/24 05:41:11;;;;;;;3.20;1.52;;;;;;;16.43;64.95;99395.31;5070819;28;20032;-83
2022/05/24 05:43:36;;;;;;;3.55;1.83;;;;;;;16.34;63.94;99399.78;5069659;28;20102;-83
2022/05/24 05:46:03;;;;;;;3.47;1.63;;;;;;;16.45;64.53;99395.97;5072706;28;20060;-83
2022/05/24 05:48:29;;;;;;;3.00;1.30;;;;;;;16.64;64.63;99403.56;5072416;28;20024;-83
2022/05/24 05:50:55;;;;;;;3.35;1.40;;;;;;;16.89;63.79;99408.84;5071928;28;20028;-83
2022/05/24 05:53:20;;;;;;;2.03;1.70;;;;;;;17.10;63.71;99410.09;5072512;28;20517;-83
2022/05/24 05:55:46;;;;;;;2.78;1.40;;;;;;;17.24;61.78;99412.06;5072431;28;20020;-83
2022/05/24 05:58:12;;;;;;;1.90;1.27;;;;;;;17.18;62.24;99410.94;5072457;28;20123;-83
2022/05/24 06:00:39;;;;;;;2.15;1.02;;;;;;;17.45;61.43;99409.63;5072429;28;20099;-83
2022/05/24 06:03:06;;;;;;;2.78;1.45;;;;;;;17.60;60.77;99406.25;5070766;28;20367;-83
2022/05/24 06:05:32;;;;;;;3.20;1.00;;;;;;;17.89;61.40;99415.41;5062582;28;20082;-83
2022/05/24 06:07:59;;;;;;;2.65;1.20;;;;;;;17.82;60.58;99418.72;5052473;28;20063;-83
2022/05/24 06:10:26;;;;;;;3.38;1.08;;;;;;;18.58;59.29;99421.53;5052328;28;20034;-83
2022/05/24 06:12:52;;;;;;;2.83;1.27;;;;;;;18.15;59.80;99425.72;5052094;28;20033;-83
2022/05/24 06:15:17;;;;;;;3.05;1.02;;;;;;;18.06;60.26;99426.75;5052269;28;20036;-83
2022/05/24 06:17:49;;;;;;;1.88;0.70;;;;;;;17.53;61.41;99437.97;5052185;28;20024;-83
2022/05/24 06:20:17;;;;;;;2.22;1.00;;;;;;;17.39;61.49;99436.84;5061184;28;20031;-83
2022/05/24 06:22:42;;;;;;;1.90;0.77;;;;;;;17.19;61.40;99439.09;5072017;28;20181;-83
2022/05/24 06:25:09;;;;;;;3.10;1.00;;;;;;;16.49;63.78;99450.28;5072146;28;20228;-83
2022/05/24 06:27:35;;;;;;;4.85;0.98;;;;;;;16.71;62.99;99454.09;5070748;28;20025;-83
2022/05/24 06:30:00;;;;;;;3.70;0.70;;;;;;;17.04;62.39;99448.75;5072020;28;20037;-83
2022/05/24 06:32:26;;;;;;;1.20;0.50;;;;;;;17.39;61.87;99451.97;5063255;28;20033;-83
2022/05/24 06:34:53;;;;;;;5.97;0.70;;;;;;;16.88;61.98;99448.78;5058756;28;20475;-83
2022/05/24 06:37:19;;;;;;;3.50;0.60;;;;;;;16.96;62.66;99454.91;5052256;28;20070;-83
2022/05/24 06:39:46;;;;;;;2.55;0.60;;;;;;;17.38;61.78;99459.09;5053600;28;20552;-83
2022/05/24 06:42:11;;;;;;;1.73;0.73;;;;;;;17.67;61.36;99460.28;5050748;28;20021;-84
2022/05/24 06:44:37;;;;;;;4.57;1.23;;;;;;;17.76;60.17;99466.41;5066137;28;20114;-83
2022/05/24 06:47:02;;;;;;;1.83;0.60;;;;;;;17.94;59.46;99472.31;5069644;28;20025;-83
2022/05/24 06:49:28;;;;;;;4.15;1.10;;;;;;;18.08;59.28;99476.03;5068693;28;20383;-83
2022/05/24 06:51:53;;;;;;;2.42;0.60;;;;;;;17.70;59.73;99473.22;5050877;28;20086;-84
2022/05/24 06:54:18;;;;;;;2.40;0.90;;;;;;;17.58;61.21;99472.78;5050943;28;20025;-83
2022/05/24 06:56:44;;;;;;;3.28;0.63;;;;;;;17.96;59.08;99482.75;5050910;28;20021;-84
2022/05/24 07:04:40;;;;;;;3.40;0.80;;;;;;;18.10;59.00;99502.44;5064370;28;20394;-83
2022/05/24 07:07:06;;;;;;;2.83;0.52;;;;;;;18.31;59.01;99507.13;5065330;28;20077;-83
2022/05/24 07:09:31;;;;;;;2.63;0.60;;;;;;;18.56;58.23;99513.94;5063813;28;20032;-84
2022/05/24 07:12:00;;;;;;;3.35;0.70;;;;;;;18.80;57.42;99515.59;5064258;28;20041;-84
2022/05/24 07:14:25;;;;;;;2.63;0.60;;;;;;;18.75;57.16;99528.56;5061843;28;20497;-84
2022/05/24 07:16:51;;;;;;;6.57;0.88;;;;;;;18.63;57.33;99525.47;5062922;28;20028;-83
2022/05/24 07:19:17;;;;;;;1.02;0.40;;;;;;;19.54;55.45;99524.66;5070158;28;20044;-83
2022/05/24 07:21:44;;;;;;;2.22;0.70;;;;;;;19.26;55.56;99529.81;5070186;28;20020;-84
2022/05/24 07:24:09;;;;;;;2.45;0.47;;;;;;;19.60;55.75;99534.56;5068813;28;20021;-84
2022/05/24 07:26:35;;;;;;;1.48;0.40;;;;;;;19.74;53.66;99540.94;5069981;28;20166;-83
2022/05/24 07:29:00;;;;;;;1.77;0.60;;;;;;;19.97;53.80;99538.16;5068486;28;20028;-84
2022/05/24 07:31:25;;;;;;;5.82;0.50;;;;;;;20.52;53.02;99546.56;5068936;28;20020;-83
2022/05/24 07:33:51;;;;;;;1.60;0.47;;;;;;;21.34;51.37;99540.69;5069908;28;20029;-84
2022/05/24 07:36:16;;;;;;;3.15;0.57;;;;;;;23.07;48.08;99547.69;5069979;28;20021;-83
2022/05/24 07:38:41;;;;;;;1.95;0.40;;;;;;;23.81;45.79;99541.16;5069886;28;20024;-84
2022/05/24 07:46:34;;;;;;;5.90;0.40;;;;;;;27.93;38.48;99544.66;5071132;28;20070;-84
2022/05/24 07:49:00;;;;;;;1.55;0.57;;;;;;;27.32;37.16;99543.34;5071260;28;20108;-84
2022/05/24 07:51:26;;;;;;;0.40;0.22;;;;;;;27.28;39.16;99546.50;5071158;28;20389;-84
2022/05/24 07:53:51;;;;;;;1.45;0.22;;;;;;;25.59;41.45;99552.75;5071248;28;20020;-84
2022/05/24 07:56:18;;;;;;;3.30;0.40;;;;;;;24.94;42.08;99562.03;5071193;28;20025;-84
2022/05/24 07:58:45;;;;;;;1.25;0.38;;;;;;;24.03;43.43;99557.81;5074429;28;20479;-84
2022/05/24 08:01:11;;;;;;;1.17;0.40;;;;;;;23.56;45.06;99559.78;5074723;28;20020;-84
2022/05/24 08:03:38;;;;;;;1.52;0.38;;;;;;;22.78;45.67;99563.09;5074725;28;20096;-84
2022/05/24 08:06:05;;;;;;;0.93;0.45;;;;;;;21.64;49.02;99561.03;5074940;28;20089;-84
2022/05/24 08:08:30;;;;;;;3.72;0.50;;;;;;;20.61;50.35;99566.78;5074530;28;20028;-84
2022/05/24 08:10:55;;;;;;;1.52;0.50;;;;;;;19.39;53.53;99572.56;5073253;28;20107;-84
2022/05/24 08:13:22;;;;;;;4.28;0.52;;;;;;;19.85;52.56;99563.63;5074495;28;20025;-83
2022/05/24 08:15:52;;;;;;;2.22;0.50;;;;;;;19.68;54.43;99569.09;5074533;28;20568;-84
2022/05/24 08:18:20;;;;;;;1.55;0.45;;;;;;;20.26;52.69;99568.41;5073086;28;20119;-83
2022/05/24 08:20:47;;;;;;;1.27;0.40;;;;;;;20.60;51.80;99573.97;5074420;28;20021;-84
2022/05/24 08:23:12;;;;;;;0.75;0.30;;;;;;;21.54;50.29;99567.56;5074279;28;20103;-84
2022/05/24 08:25:38;;;;;;;0.77;0.30;;;;;;;21.93;49.34;99568.78;5074391;28;20123;-84
2022/05/24 08:28:07;;;;;;;1.98;0.40;;;;;;;22.35;48.55;99576.78;5074232;28;20498;-84
2022/05/24 08:30:34;;;;;;;1.85;0.28;;;;;;;24.68;45.20;99572.94;5074023;28;20031;-84
2022/05/24 08:33:04;;;;;;;1.55;0.35;;;;;;;24.20;43.23;99578.78;5074067;28;20028;-84
2022/05/24 08:35:32;;;;;;;0.57;0.40;;;;;;;24.88;41.63;99579.00;5074502;28;20044;-84
2022/05/24 08:37:57;;;;;;;1.02;0.20;;;;;;;26.99;39.39;99583.22;5073968;28;20085;-84
2022/05/24 08:40:23;;;;;;;0.60;0.10;;;;;;;26.02;39.39;99594.91;5073894;28;20059;-84
2022/05/24 08:43:18;;;;;;;0.20;0.10;;;;;;;26.11;40.35;99598.13;5073897;28;20020;-84
2022/05/24 08:48:47;;;;;;;0.95;0.40;;;;;;;25.91;39.40;99595.69;5074138;28;20127;-84
2022/05/24 08:51:32;;;;;;;2.08;0.20;;;;;;;26.43;39.95;99590.66;5073643;28;20123;-84
2022/05/24 08:54:32;;;;;;;2.55;0.40;;;;;;;27.91;36.52;99595.34;5073730;28;20027;-84
2022/05/24 08:57:04;;;;;;;2.45;0.43;;;;;;;30.08;32.54;99589.75;5061451;28;20043;-84
2022/05/24 08:59:35;;;;;;;0.30;0.10;;;;;;;28.68;33.83;99599.53;5072234;28;20027;-84
2022/05/24 09:02:04;;;;;;;0.82;0.20;;;;;;;29.74;33.11;99584.44;5073429;28;20025;-85
2022/05/24 09:04:30;;;;;;;0.90;0.20;;;;;;;31.85;29.74;99585.28;5073660;28;20059;-84
2022/05/24 09:07:16;;;;;;;0.80;0.10;;;;;;;31.91;29.72;99589.69;5073777;28;20021;-84
2022/05/24 09:10:07;;;;;;;2.28;0.35;;;;;;;33.19;28.69;99587.19;5073110;28;20056;-83
2022/05/24 09:12:57;;;;;;;0.47;0.15;;;;;;;33.49;27.93;99584.69;5072035;28;20020;-85
2022/05/24 09:15:53;;;;;;;0.73;0.30;;;;;;;29.81;31.79;99595.91;5072006;28;20036;-84
2022/05/24 09:18:29;;;;;;;0.82;0.20;;;;;;;31.18;31.10;99587.59;5073319;28;20032;-85
2022/05/24 09:20:55;;;;;;;1.55;0.20;;;;;;;30.07;31.36;99596.22;5073126;28;20036;-84
2022/05/24 09:23:41;;;;;;;0.30;0.20;;;;;;;30.01;32.50;99604.28;5073047;28;20051;-84
2022/05/24 09:26:17;;;;;;;0.85;0.13;;;;;;;28.85;32.40;99611.19;5073050;28;20064;-85
2022/05/24 09:28:45;;;;;;;4.25;0.20;;;;;;;31.55;30.03;99608.47;5071798;28;20025;-84
2022/05/24 09:31:19;;;;;;;3.05;0.20;;;;;;;31.77;29.37;99602.88;5070564;28;20025;-85
2022/05/24 09:33:44;;;;;;;0.75;0.13;;;;;;;32.96;27.57;99606.75;5071247;28;20028;-85
2022/05/24 09:36:25;;;;;;;1.23;0.15;;;;;;;33.91;26.24;99597.94;5071361;28;20020;-83
2022/05/24 09:38:50;;;;;;;1.27;0.13;;;;;;;31.65;28.91;99601.47;5072373;28;20157;-82
2022/05/24 09:41:22;;;;;;;0.75;0.25;;;;;;;30.21;29.68;99602.88;5072847;28;20502;-83
2022/05/24 09:44:15;;;;;;;1.13;0.13;;;;;;;26.76;35.21;99610.94;5071313;28;20363;-82
2022/05/24 09:46:42;;;;;;;1.08;0.20;;;;;;;24.43;37.73;99626.53;5071308;28;20032;-82
2022/05/24 09:49:31;;;;;;;0.73;0.20;;;;;;;25.94;36.37;99613.22;5071704;28;20082;-82
2022/05/24 09:52:11;;;;;;;1.25;0.13;;;;;;;28.30;34.70;99614.47;5070907;28;20064;-82
2022/05/24 09:54:53;;;;;;;1.73;0.20;;;;;;;29.37;33.11;99601.25;5072514;28;20025;-82
2022/05/24 09:57:25;;;;;;;1.05;0.20;;;;;;;29.74;31.35;99606.09;5071863;28;20043;-82
2022/05/24 10:00:00;;;;;;;3.88;0.28;;;;;;;28.46;31.55;99613.69;5072169;28;20055;-82
2022/05/24 10:02:30;;;;;;;1.73;0.25;;;;;;;26.75;34.28;99617.38;5071098;28;20066;-84
2022/05/24 10:04:56;;;;;;;0.83;0.30;;;;;;;25.33;36.77;99618.34;5072374;28;20051;-85
2022/05/24 10:07:28;;;;;;;1.05;0.25;;;;;;;25.32;37.78;99611.34;5071939;28;20293;-85
2022/05/24 10:10:12;;;;;;;0.88;0.20;;;;;;;27.23;34.17;99611.03;5071932;28;20028;-85
2022/05/24 10:12:44;;;;;;;1.23;0.20;;;;;;;28.29;33.26;99612.81;5072240;28;20023;-85
2022/05/24 10:15:14;;;;;;;;;;;;;;;29.05;30.60;99616.13;5072552;28;20457;-85
2022/05/24 10:18:14;;;;;;;0.50;0.10;;;;;;;27.99;31.81;99616.56;5072042;28;19969;-85
2022/05/24 10:20:51;;;;;;;0.68;0.28;;;;;;;27.95;32.04;99612.69;5070178;28;20024;-85
2022/05/24 10:23:47;;;;;;;2.30;0.22;;;;;;;29.30;30.79;99614.91;5072206;28;20020;-85
2022/05/24 10:26:27;;;;;;;1.65;0.45;;;;;;;28.51;33.30;99620.28;5071917;28;20027;-85
2022/05/24 10:29:04;;;;;;;1.58;0.55;;;;;;;27.09;33.86;99615.81;5071667;28;20028;-85
2022/05/24 10:31:48;;;;;;;1.75;0.50;;;;;;;26.75;34.65;99620.06;5070766;28;20025;-85
2022/05/24 10:40:33;;;;;;;1.88;0.40;;;;;;;25.77;34.38;99629.09;5071666;28;20039;-85
2022/05/24 10:43:21;;;;;;;3.55;0.40;;;;;;;26.83;34.19;99630.50;5070633;28;20048;-85
2022/05/24 10:45:58;;;;;;;2.35;0.20;;;;;;;28.17;31.36;99631.75;5070384;28;20029;-85
2022/05/24 10:48:35;;;;;;;1.30;0.20;;;;;;;29.26;29.95;99628.09;5051722;28;20025;-85
2022/05/24 10:51:26;;;;;;;0.10;0.10;;;;;;;28.35;28.92;99638.84;5051486;28;20033;-83
2022/05/24 10:54:10;;;;;;;0.63;0.00;;;;;;;30.17;27.82;99645.06;5048411;28;20044;-83
2022/05/24 10:56:49;;;;;;;1.63;0.10;;;;;;;30.16;30.75;99630.72;5061643;28;20025;-85
2022/05/24 10:59:35;;;;;;;7.55;0.43;;;;;;;29.63;29.88;99646.50;5071277;28;20028;-85
2022/05/24 11:02:15;;;;;;;1.02;0.40;;;;;;;29.87;29.95;99650.94;5071379;28;20056;-85
2022/05/24 11:05:05;;;;;;;3.30;0.45;;;;;;;29.22;30.30;99635.06;5063926;28;20029;-86
2022/05/24 11:07:33;;;;;;;1.52;0.40;;;;;;;29.83;29.97;99646.00;5070321;28;20429;-86
2022/05/24 11:10:23;;;;;;;1.88;0.40;;;;;;;28.60;32.92;99645.84;5070431;28;20589;-85
2022/05/24 11:12:52;;;;;;;4.03;0.47;;;;;;;28.05;32.23;99647.97;5068480;28;20032;-86
2022/05/24 11:15:23;;;;;;;5.40;0.50;;;;;;;29.52;31.00;99647.41;5071337;28;20025;-86
2022/05/24 11:17:49;;;;;;;1.02;0.30;;;;;;;29.13;32.01;99639.25;5070472;28;20032;-86
2022/05/24 11:20:22;;;;;;;2.33;0.40;;;;;;;29.73;30.78;99648.56;5070322;28;20036;-86
2022/05/24 11:23:37;;;;;;;1.10;0.20;;;;;;;27.63;29.53;99655.41;5069832;28;20035;-85
2022/05/24 11:26:15;;;;;;;1.27;0.17;;;;;;;26.62;32.65;99657.94;5071098;28;20021;-85
2022/05/24 11:28:47;;;;;;;2.70;0.40;;;;;;;28.14;30.32;99653.84;5070914;28;20024;-85
2022/05/24 11:31:38;;;;;;;1.25;0.15;;;;;;;27.07;32.12;99644.88;5054223;28;20044;-86
2022/05/24 11:34:29;;;;;;;0.85;0.50;;;;;;;27.48;31.05;99661.22;5068066;28;20417;-86
2022/05/24 11:37:01;;;;;;;;;;;;;;;26.36;32.30;99659.91;5075357;28;20058;-86
2022/05/24 11:39:29;;;;;;;;;;;;;;;26.51;32.97;99663.03;5074120;28;20309;-86
2022/05/24 11:42:22;;;;;;;6.40;0.50;;;;;;;25.98;34.15;99678.97;5074853;28;20289;-86
2022/05/24 11:44:50;;;;;;;1.23;0.30;;;;;;;26.79;32.64;99664.34;5073573;28;20028;-86
2022/05/24 11:47:33;;;;;;;2.08;0.70;;;;;;;28.42;32.99;99661.16;5074984;28;20032;-86
2022/05/24 11:50:03;;;;;;;1.45;0.30;;;;;;;26.48;33.11;99662.66;5073669;28;20036;-86
2022/05/24 11:52:43;;;;;;;2.10;0.40;;;;;;;25.40;34.70;99672.03;5074344;28;20043;-86
2022/05/24 11:55:09;;;;;;;0.60;0.30;;;;;;;24.78;36.14;99675.28;5057856;28;20040;-87
2022/05/24 11:57:42;;;;;;;2.08;0.28;;;;;;;27.10;33.89;99663.25;5068322;28;20103;-86
2022/05/24 12:00:11;;;;;;;2.08;0.35;;;;;;;24.48;37.31;99680.38;5073223;28;20036;-86
2022/05/24 12:08:36;;;;;;;0.63;0.20;;;;;;;25.59;34.69;99676.41;5071272;28;20047;-85
2022/05/24 12:11:05;;;;;;;2.78;0.30;;;;;;;25.91;35.29;99685.25;5070235;28;20056;-85
2022/05/24 12:13:33;;;;;;;3.28;0.22;;;;;;;26.87;35.38;99690.13;5071767;28;20020;-85
2022/05/24 12:16:06;;;;;;;2.10;0.43;;;;;;;23.94;36.88;99685.09;5073077;28;20648;-85
2022/05/24 12:18:42;;;;;;;1.65;0.75;;;;;;;25.87;33.98;99688.56;5073451;28;20036;-86
2022/05/24 12:21:08;;;;;;;0.68;0.45;;;;;;;23.99;34.76;99690.63;5073110;28;20055;-85
2022/05/24 12:23:38;;;;;;;1.67;0.30;;;;;;;24.82;34.31;99691.81;5072353;28;20103;-85
2022/05/24 12:26:05;;;;;;;3.25;0.40;;;;;;;25.80;33.38;99690.50;5073338;28;20039;-85
2022/05/24 12:28:34;;;;;;;2.42;0.40;;;;;;;25.86;33.49;99703.06;5073266;28;20029;-86